sensor_id;sensor_type;location;lat;lon;timestamp;pressure;altitude;pressure_sealevel;temperature;humidity
21588;BME280;10956;48.878;13.316;2023-02-03T00:00:53;94990.06;;;1.40;100.00
21588;BME280;10956;48.878;13.316;2023-02-03T00:03:19;94987.63;;;1.39;100.00
21588;BME280;10956;48.878;13.316;2023-02-03T00:05:45;94990.44;;;1.37;100.00
21588;BME280;10956;48.878;13.316;2023-02-03T00:08:12;94979.44;;;1.35;100.00
21588;BME280;10956;48.878;13.316;2023-02-03T00:10:39;94976.25;;;1.40;100.00
21588;BME280;10956;48.878;13.316;2023-02-03T00:13:05;94979.66;;;1.40;100.00
21588;BME280;10956;48.878;13.316;2023-02-03T00:15:31;94964.50;;;1.44;100.00
21588;BME280;10956;48.878;13.316;2023-02-03T00:17:56;94958.13;;;1.46;100.00
21588;BME280;10956;48.878;13.316;2023-02-03T00:20:22;94958.50;;;1.43;100.00
21588;BME280;10956;48.878;13.316;2023-02-03T00:22:47;94960.09;;;1.44;100.00
21588;BME280;10956;48.878;13.316;2023-02-03T00:25:13;94965.31;;;1.44;100.00
21588;BME280;10956;48.878;13.316;2023-02-03T00:27:39;94962.91;;;1.43;100.00
21588;BME280;10956;48.878;13.316;2023-02-03T00:30:04;94958.09;;;1.40;100.00
21588;BME280;10956;48.878;13.316;2023-02-03T00:32:30;94964.09;;;1.40;100.00
21588;BME280;10956;48.878;13.316;2023-02-03T00:34:55;94962.09;;;1.42;100.00
21588;BME280;10956;48.878;13.316;2023-02-03T00:37:21;94974.09;;;1.43;100.00
21588;BME280;10956;48.878;13.316;2023-02-03T00:39:48;94958.50;;;1.43;100.00
21588;BME280;10956;48.878;13.316;2023-02-03T00:42:14;94961.34;;;1.48;100.00
21588;BME280;10956;48.878;13.316;2023-02-03T00:44:39;94963.94;;;1.48;100.00
21588;BME280;10956;48.878;13.316;2023-02-03T00:47:05;94962.09;;;1.42;100.00
21588;BME280;10956;48.878;13.316;2023-02-03T00:49:30;94969.28;;;1.40;100.00
21588;BME280;10956;48.878;13.316;2023-02-03T00:51:56;94964.09;;;1.40;100.00
21588;BME280;10956;48.878;13.316;2023-02-03T00:54:22;94951.09;;;1.40;100.00
21588;BME280;10956;48.878;13.316;2023-02-03T00:56:47;94959.69;;;1.41;100.00
21588;BME280;10956;48.878;13.316;2023-02-03T00:59:13;94956.91;;;1.42;100.00
21588;BME280;10956;48.878;13.316;2023-02-03T01:01:38;94960.09;;;1.44;100.00
21588;BME280;10956;48.878;13.316;2023-02-03T01:04:04;94957.50;;;1.44;100.00
21588;BME280;10956;48.878;13.316;2023-02-03T01:06:29;94952.94;;;1.46;100.00
21588;BME280;10956;48.878;13.316;2023-02-03T01:08:55;94951.31;;;1.45;100.00
21588;BME280;10956;48.878;13.316;2023-02-03T01:11:23;94957.31;;;1.46;100.00
21588;BME280;10956;48.878;13.316;2023-02-03T01:13:50;94943.72;;;1.44;100.00
21588;BME280;10956;48.878;13.316;2023-02-03T01:16:18;94942.53;;;1.46;100.00
21588;BME280;10956;48.878;13.316;2023-02-03T01:18:44;94942.91;;;1.43;100.00
21588;BME280;10956;48.878;13.316;2023-02-03T01:21:13;94938.34;;;1.45;100.00
21588;BME280;10956;48.878;13.316;2023-02-03T01:23:39;94940.31;;;1.43;100.00
21588;BME280;10956;48.878;13.316;2023-02-03T01:26:07;94945.53;;;1.43;100.00
21588;BME280;10956;48.878;13.316;2023-02-03T01:28:33;94944.53;;;1.44;100.00
21588;BME280;10956;48.878;13.316;2023-02-03T01:31:13;94938.16;;;1.47;100.00
21588;BME280;10956;48.878;13.316;2023-02-03T01:33:40;94943.13;;;1.42;100.00
21588;BME280;10956;48.878;13.316;2023-02-03T01:36:07;94938.91;;;1.41;100.00
21588;BME280;10956;48.878;13.316;2023-02-03T01:38:33;94932.72;;;1.42;100.00
21588;BME280;10956;48.878;13.316;2023-02-03T01:40:58;94932.53;;;1.43;100.00
21588;BME280;10956;48.878;13.316;2023-02-03T01:43:38;94937.13;;;1.41;100.00
21588;BME280;10956;48.878;13.316;2023-02-03T01:46:13;94935.13;;;1.43;100.00
21588;BME280;10956;48.878;13.316;2023-02-03T01:48:42;94927.16;;;1.45;100.00
21588;BME280;10956;48.878;13.316;2023-02-03T01:51:08;94925.72;;;1.42;100.00
21588;BME280;10956;48.878;13.316;2023-02-03T01:53:34;94922.53;;;1.40;100.00
21588;BME280;10956;48.878;13.316;2023-02-03T01:56:02;94928.56;;;1.47;100.00
21588;BME280;10956;48.878;13.316;2023-02-03T01:59:41;94918.16;;;1.47;100.00
21588;BME280;10956;48.878;13.316;2023-02-03T02:02:03;94916.56;;;1.46;100.00
21588;BME280;10956;48.878;13.316;2023-02-03T02:04:35;94909.78;;;1.45;100.00
21588;BME280;10956;48.878;13.316;2023-02-03T02:07:05;94907.78;;;1.47;100.00
21588;BME280;10956;48.878;13.316;2023-02-03T02:09:31;94914.19;;;1.51;100.00
21588;BME280;10956;48.878;13.316;2023-02-03T02:11:56;94910.00;;;1.50;100.00
21588;BME280;10956;48.878;13.316;2023-02-03T02:14:22;94909.00;;;1.51;100.00
21588;BME280;10956;48.878;13.316;2023-02-03T02:20:17;94904.19;;;1.48;100.00
21588;BME280;10956;48.878;13.316;2023-02-03T02:26:13;94897.81;;;1.51;100.00
21588;BME280;10956;48.878;13.316;2023-02-03T02:40:20;94877.84;;;1.51;100.00
21588;BME280;10956;48.878;13.316;2023-02-03T02:43:12;94876.22;;;1.50;100.00
21588;BME280;10956;48.878;13.316;2023-02-03T02:45:48;94880.81;;;1.48;100.00
21588;BME280;10956;48.878;13.316;2023-02-03T02:48:35;94874.25;;;1.52;100.00
21588;BME280;10956;48.878;13.316;2023-02-03T02:51:06;94867.44;;;1.51;100.00
21588;BME280;10956;48.878;13.316;2023-02-03T02:53:39;94865.84;;;1.50;100.00
21588;BME280;10956;48.878;13.316;2023-02-03T02:56:08;94874.63;;;1.49;100.00
21588;BME280;10956;48.878;13.316;2023-02-03T02:58:37;94869.44;;;1.49;100.00
21588;BME280;10956;48.878;13.316;2023-02-03T03:01:05;94867.44;;;1.51;100.00
21588;BME280;10956;48.878;13.316;2023-02-03T03:03:32;94877.44;;;1.54;100.00
21588;BME280;10956;48.878;13.316;2023-02-03T03:06:10;94873.47;;;1.58;100.00
21588;BME280;10956;48.878;13.316;2023-02-03T03:08:53;94873.88;;;1.62;100.00
21588;BME280;10956;48.878;13.316;2023-02-03T03:11:25;94863.09;;;1.65;100.00
21588;BME280;10956;48.878;13.316;2023-02-03T03:13:54;94870.50;;;1.68;100.00
21588;BME280;10956;48.878;13.316;2023-02-03T03:16:25;94871.91;;;1.71;100.00
21588;BME280;10956;48.878;13.316;2023-02-03T03:18:55;94876.72;;;1.74;100.00
21588;BME280;10956;48.878;13.316;2023-02-03T03:21:27;94873.31;;;1.73;100.00
21588;BME280;10956;48.878;13.316;2023-02-03T03:23:58;94866.94;;;1.76;100.00
21588;BME280;10956;48.878;13.316;2023-02-03T03:26:33;94865.94;;;1.77;100.00
21588;BME280;10956;48.878;13.316;2023-02-03T03:29:14;94867.94;;;1.75;100.00
21588;BME280;10956;48.878;13.316;2023-02-03T03:31:41;94871.13;;;1.77;100.00
21588;BME280;10956;48.878;13.316;2023-02-03T03:34:10;94868.75;;;1.82;100.00
21588;BME280;10956;48.878;13.316;2023-02-03T03:39:12;94862.16;;;1.86;100.00
21588;BME280;10956;48.878;13.316;2023-02-03T03:42:00;94852.78;;;1.85;100.00
21588;BME280;10956;48.878;13.316;2023-02-03T03:44:33;94858.59;;;1.87;100.00
21588;BME280;10956;48.878;13.316;2023-02-03T03:47:29;94859.56;;;1.86;100.00
21588;BME280;10956;48.878;13.316;2023-02-03T03:49:52;94866.75;;;1.84;100.00
21588;BME280;10956;48.878;13.316;2023-02-03T03:52:22;94870.75;;;1.80;100.00
21588;BME280;10956;48.878;13.316;2023-02-03T03:54:50;94867.94;;;1.75;100.00
21588;BME280;10956;48.878;13.316;2023-02-03T03:57:22;94875.16;;;1.79;100.00
21588;BME280;10956;48.878;13.316;2023-02-03T03:59:50;94861.16;;;1.80;100.00
21588;BME280;10956;48.878;13.316;2023-02-03T04:02:17;94861.97;;;1.81;100.00
21588;BME280;10956;48.878;13.316;2023-02-03T04:04:44;94863.94;;;1.72;100.00
21588;BME280;10956;48.878;13.316;2023-02-03T04:07:14;94869.34;;;1.77;100.00
21588;BME280;10956;48.878;13.316;2023-02-03T04:09:40;94872.31;;;1.74;100.00
21588;BME280;10956;48.878;13.316;2023-02-03T04:12:15;94882.53;;;1.76;100.00
21588;BME280;10956;48.878;13.316;2023-02-03T04:14:44;94884.31;;;1.69;100.00
21588;BME280;10956;48.878;13.316;2023-02-03T04:17:09;94878.09;;;1.70;100.00
21588;BME280;10956;48.878;13.316;2023-02-03T04:19:34;94875.13;;;1.73;100.00
21588;BME280;10956;48.878;13.316;2023-02-03T04:22:00;94868.72;;;1.69;100.00
21588;BME280;10956;48.878;13.316;2023-02-03T04:24:25;94871.91;;;1.71;100.00
21588;BME280;10956;48.878;13.316;2023-02-03T04:26:50;94882.09;;;1.66;100.00
21588;BME280;10956;48.878;13.316;2023-02-03T04:29:16;94878.09;;;1.63;100.00
21588;BME280;10956;48.878;13.316;2023-02-03T04:31:41;94875.09;;;1.66;100.00
21588;BME280;10956;48.878;13.316;2023-02-03T04:34:07;94871.91;;;1.71;100.00
21588;BME280;10956;48.878;13.316;2023-02-03T04:36:32;94880.31;;;1.73;100.00
21588;BME280;10956;48.878;13.316;2023-02-03T04:38:57;94877.88;;;1.65;100.00
21588;BME280;10956;48.878;13.316;2023-02-03T04:41:23;94887.06;;;1.60;100.00
21588;BME280;10956;48.878;13.316;2023-02-03T04:43:48;94871.69;;;1.66;100.00
21588;BME280;10956;48.878;13.316;2023-02-03T04:46:14;94873.91;;;1.69;100.00
21588;BME280;10956;48.878;13.316;2023-02-03T04:48:39;94871.91;;;1.71;100.00
21588;BME280;10956;48.878;13.316;2023-02-03T04:51:06;94881.75;;;1.82;100.00
21588;BME280;10956;48.878;13.316;2023-02-03T04:53:33;94870.34;;;1.76;100.00
21588;BME280;10956;48.878;13.316;2023-02-03T04:55:59;94871.88;;;1.64;100.00
21588;BME280;10956;48.878;13.316;2023-02-03T04:58:25;94880.50;;;1.65;100.00
21588;BME280;10956;48.878;13.316;2023-02-03T05:00:51;94872.66;;;1.58;100.00
21588;BME280;10956;48.878;13.316;2023-02-03T05:03:17;94862.28;;;1.58;100.00
21588;BME280;10956;48.878;13.316;2023-02-03T05:05:42;94845.25;;;1.49;100.00
21588;BME280;10956;48.878;13.316;2023-02-03T05:08:08;94836.66;;;1.48;100.00
21588;BME280;10956;48.878;13.316;2023-02-03T05:10:33;94837.88;;;1.52;100.00
21588;BME280;10956;48.878;13.316;2023-02-03T05:12:58;94827.69;;;1.57;100.00
21588;BME280;10956;48.878;13.316;2023-02-03T05:15:24;94835.09;;;1.54;100.00
21588;BME280;10956;48.878;13.316;2023-02-03T05:17:55;94830.28;;;1.57;100.00
21588;BME280;10956;48.878;13.316;2023-02-03T05:20:21;94824.72;;;1.60;100.00
21588;BME280;10956;48.878;13.316;2023-02-03T05:22:47;94808.53;;;1.58;100.00
21588;BME280;10956;48.878;13.316;2023-02-03T05:25:12;94788.91;;;1.49;100.00
21588;BME280;10956;48.878;13.316;2023-02-03T05:27:39;94785.91;;;1.52;100.00
21588;BME280;10956;48.878;13.316;2023-02-03T05:30:05;94795.50;;;1.52;100.00
21588;BME280;10956;48.878;13.316;2023-02-03T05:32:31;94791.28;;;1.44;100.00
21588;BME280;10956;48.878;13.316;2023-02-03T05:34:57;94797.88;;;1.40;100.00
21588;BME280;10956;48.878;13.316;2023-02-03T05:37:22;94789.69;;;1.43;100.00
21588;BME280;10956;48.878;13.316;2023-02-03T05:39:47;94785.53;;;1.55;100.00
21588;BME280;10956;48.878;13.316;2023-02-03T05:42:13;94792.72;;;1.53;100.00
21588;BME280;10956;48.878;13.316;2023-02-03T05:44:38;94790.28;;;1.39;100.00
21588;BME280;10956;48.878;13.316;2023-02-03T05:47:04;94793.28;;;1.42;100.00
21588;BME280;10956;48.878;13.316;2023-02-03T05:49:29;94810.06;;;1.46;100.00
21588;BME280;10956;48.878;13.316;2023-02-03T05:51:55;94788.72;;;1.51;100.00
21588;BME280;10956;48.878;13.316;2023-02-03T05:54:21;94791.53;;;1.56;100.00
21588;BME280;10956;48.878;13.316;2023-02-03T05:56:46;94789.69;;;1.43;100.00
21588;BME280;10956;48.878;13.316;2023-02-03T05:59:11;94783.50;;;1.44;100.00
21588;BME280;10956;48.878;13.316;2023-02-03T06:01:37;94789.31;;;1.46;100.00
21588;BME280;10956;48.878;13.316;2023-02-03T06:04:03;94785.50;;;1.42;100.00
21588;BME280;10956;48.878;13.316;2023-02-03T06:06:29;94780.91;;;1.44;100.00
21588;BME280;10956;48.878;13.316;2023-02-03T06:09:07;94791.47;;;1.36;100.00
21588;BME280;10956;48.878;13.316;2023-02-03T06:11:33;94771.50;;;1.43;100.00
21588;BME280;10956;48.878;13.316;2023-02-03T06:14:00;94764.13;;;1.47;100.00
21588;BME280;10956;48.878;13.316;2023-02-03T06:16:27;94780.72;;;1.46;100.00
21588;BME280;10956;48.878;13.316;2023-02-03T06:18:54;94757.34;;;1.46;100.00
21588;BME280;10956;48.878;13.316;2023-02-03T06:21:22;94751.31;;;1.39;100.00
21588;BME280;10956;48.878;13.316;2023-02-03T06:23:47;94755.50;;;1.40;100.00
21588;BME280;10956;48.878;13.316;2023-02-03T06:26:13;94741.94;;;1.44;100.00
21588;BME280;10956;48.878;13.316;2023-02-03T06:28:39;94734.38;;;1.49;100.00
21588;BME280;10956;48.878;13.316;2023-02-03T06:31:05;94735.94;;;1.44;100.00
21588;BME280;10956;48.878;13.316;2023-02-03T06:33:30;94731.97;;;1.48;100.00
21588;BME280;10956;48.878;13.316;2023-02-03T06:35:56;94732.38;;;1.51;100.00
21588;BME280;10956;48.878;13.316;2023-02-03T06:38:22;94739.56;;;1.49;100.00
21588;BME280;10956;48.878;13.316;2023-02-03T06:40:47;94735.97;;;1.50;100.00
21588;BME280;10956;48.878;13.316;2023-02-03T06:43:13;94743.75;;;1.50;100.00
21588;BME280;10956;48.878;13.316;2023-02-03T06:45:38;94740.78;;;1.53;100.00
21588;BME280;10956;48.878;13.316;2023-02-03T06:48:04;94737.56;;;1.51;100.00
21588;BME280;10956;48.878;13.316;2023-02-03T06:50:30;94735.56;;;1.53;100.00
21588;BME280;10956;48.878;13.316;2023-02-03T06:52:55;94720.38;;;1.50;100.00
21588;BME280;10956;48.878;13.316;2023-02-03T06:55:21;94687.63;;;1.63;100.00
21588;BME280;10956;48.878;13.316;2023-02-03T06:57:47;94695.22;;;1.64;100.00
21588;BME280;10956;48.878;13.316;2023-02-03T07:00:13;94702.03;;;1.65;100.00
21588;BME280;10956;48.878;13.316;2023-02-03T07:02:39;94702.22;;;1.64;100.00
21588;BME280;10956;48.878;13.316;2023-02-03T07:05:05;94716.81;;;1.58;100.00
21588;BME280;10956;48.878;13.316;2023-02-03T07:07:30;94714.41;;;1.56;100.00
21588;BME280;10956;48.878;13.316;2023-02-03T07:09:57;94728.00;;;1.58;100.00
21588;BME280;10956;48.878;13.316;2023-02-03T07:12:22;94721.22;;;1.64;100.00
21588;BME280;10956;48.878;13.316;2023-02-03T07:14:48;94728.81;;;1.66;100.00
21588;BME280;10956;48.878;13.316;2023-02-03T07:17:13;94729.59;;;1.66;100.00
21588;BME280;10956;48.878;13.316;2023-02-03T07:19:39;94733.81;;;1.74;100.00
21588;BME280;10956;48.878;13.316;2023-02-03T07:22:04;94706.44;;;1.71;100.00
21588;BME280;10956;48.878;13.316;2023-02-03T07:24:29;94700.03;;;1.74;100.00
21588;BME280;10956;48.878;13.316;2023-02-03T07:26:55;94714.63;;;1.75;100.00
21588;BME280;10956;48.878;13.316;2023-02-03T07:29:20;94726.63;;;1.82;100.00
21588;BME280;10956;48.878;13.316;2023-02-03T07:31:46;94718.03;;;1.82;100.00
21588;BME280;10956;48.878;13.316;2023-02-03T07:34:11;94739.81;;;1.74;100.00
21588;BME280;10956;48.878;13.316;2023-02-03T07:36:37;94738.00;;;1.75;100.00
21588;BME280;10956;48.878;13.316;2023-02-03T07:39:02;94764.38;;;1.72;100.00
21588;BME280;10956;48.878;13.316;2023-02-03T07:41:28;94749.41;;;1.74;100.00
21588;BME280;10956;48.878;13.316;2023-02-03T07:43:53;94756.19;;;1.75;100.00
21588;BME280;10956;48.878;13.316;2023-02-03T07:46:19;94760.00;;;1.72;100.00
21588;BME280;10956;48.878;13.316;2023-02-03T07:48:44;94764.78;;;1.69;100.00
21588;BME280;10956;48.878;13.316;2023-02-03T07:51:09;94777.59;;;1.83;100.00
21588;BME280;10956;48.878;13.316;2023-02-03T07:53:35;94779.00;;;1.86;100.00
21588;BME280;10956;48.878;13.316;2023-02-03T07:56:04;94783.41;;;1.92;100.00
21588;BME280;10956;48.878;13.316;2023-02-03T07:58:30;94766.03;;;1.92;100.00
21588;BME280;10956;48.878;13.316;2023-02-03T08:00:57;94770.63;;;1.97;100.00
21588;BME280;10956;48.878;13.316;2023-02-03T08:03:23;94766.84;;;2.00;100.00
21588;BME280;10956;48.878;13.316;2023-02-03T08:05:49;94776.03;;;2.02;100.00
21588;BME280;10956;48.878;13.316;2023-02-03T08:08:15;94761.84;;;2.05;100.00
21588;BME280;10956;48.878;13.316;2023-02-03T08:10:41;94763.84;;;2.03;100.00
21588;BME280;10956;48.878;13.316;2023-02-03T08:13:08;94764.44;;;2.05;100.00
21588;BME280;10956;48.878;13.316;2023-02-03T08:15:34;94770.84;;;2.02;100.00
21588;BME280;10956;48.878;13.316;2023-02-03T08:17:59;94756.44;;;2.06;100.00
21588;BME280;10956;48.878;13.316;2023-02-03T08:20:24;94748.63;;;2.06;100.00
21588;BME280;10956;48.878;13.316;2023-02-03T08:22:51;94752.44;;;2.04;100.00
21588;BME280;10956;48.878;13.316;2023-02-03T08:25:17;94758.03;;;2.07;100.00
21588;BME280;10956;48.878;13.316;2023-02-03T08:27:42;94770.84;;;2.02;100.00
21588;BME280;10956;48.878;13.316;2023-02-03T08:30:11;94767.44;;;2.08;100.00
21588;BME280;10956;48.878;13.316;2023-02-03T08:32:36;94769.66;;;2.11;100.00
21588;BME280;10956;48.878;13.316;2023-02-03T08:35:02;94757.63;;;2.10;100.00
21588;BME280;10956;48.878;13.316;2023-02-03T08:37:28;94744.44;;;2.05;100.00
21588;BME280;10956;48.878;13.316;2023-02-03T08:39:56;94763.84;;;2.09;100.00
21588;BME280;10956;48.878;13.316;2023-02-03T08:42:22;94757.63;;;2.10;100.00
21588;BME280;10956;48.878;13.316;2023-02-03T08:44:47;94767.03;;;2.11;100.00
21588;BME280;10956;48.878;13.316;2023-02-03T08:47:13;94758.03;;;1.94;100.00
21588;BME280;10956;48.878;13.316;2023-02-03T08:49:39;94758.03;;;1.94;100.00
21588;BME280;10956;48.878;13.316;2023-02-03T08:52:09;94764.44;;;1.98;100.00
21588;BME280;10956;48.878;13.316;2023-02-03T08:54:35;94758.63;;;1.89;100.00
21588;BME280;10956;48.878;13.316;2023-02-03T08:57:00;94772.22;;;1.98;100.00
21588;BME280;10956;48.878;13.316;2023-02-03T08:59:26;94754.03;;;1.98;100.00
21588;BME280;10956;48.878;13.316;2023-02-03T09:01:52;94772.44;;;2.16;100.00
21588;BME280;10956;48.878;13.316;2023-02-03T09:04:18;94778.66;;;2.15;100.00
21588;BME280;10956;48.878;13.316;2023-02-03T09:06:47;94771.25;;;2.25;100.00
21588;BME280;10956;48.878;13.316;2023-02-03T09:09:14;94775.84;;;2.23;100.00
21588;BME280;10956;48.878;13.316;2023-02-03T09:11:40;94766.03;;;2.39;100.00
21588;BME280;10956;48.878;13.316;2023-02-03T09:14:06;94764.84;;;2.35;100.00
21588;BME280;10956;48.878;13.316;2023-02-03T09:16:32;94760.84;;;2.39;100.00
21588;BME280;10956;48.878;13.316;2023-02-03T09:18:57;94737.03;;;2.29;100.00
21588;BME280;10956;48.878;13.316;2023-02-03T09:21:23;94748.63;;;2.46;100.00
21588;BME280;10956;48.878;13.316;2023-02-03T09:23:48;94761.03;;;2.44;100.00
21588;BME280;10956;48.878;13.316;2023-02-03T09:26:16;94762.44;;;2.40;100.00
21588;BME280;10956;48.878;13.316;2023-02-03T09:28:42;94765.63;;;2.42;100.00
21588;BME280;10956;48.878;13.316;2023-02-03T09:31:10;94761.25;;;2.36;100.00
21588;BME280;10956;48.878;13.316;2023-02-03T09:33:36;94769.25;;;2.28;100.00
21588;BME280;10956;48.878;13.316;2023-02-03T09:36:02;94773.44;;;2.29;100.00
21588;BME280;10956;48.878;13.316;2023-02-03T09:38:28;94768.84;;;2.31;100.00
21588;BME280;10956;48.878;13.316;2023-02-03T09:46:21;94787.25;;;2.49;100.00
21588;BME280;10956;48.878;13.316;2023-02-03T09:48:52;94771.63;;;2.49;100.00
21588;BME280;10956;48.878;13.316;2023-02-03T09:51:22;94772.44;;;2.43;100.00
21588;BME280;10956;48.878;13.316;2023-02-03T09:54:15;94780.66;;;2.40;100.00
21588;BME280;10956;48.878;13.316;2023-02-03T09:56:42;94793.06;;;2.38;100.00
21588;BME280;10956;48.878;13.316;2023-02-03T09:59:17;94798.47;;;2.43;100.00
21588;BME280;10956;48.878;13.316;2023-02-03T10:01:57;94805.25;;;2.50;100.00
21588;BME280;10956;48.878;13.316;2023-02-03T10:04:37;94797.84;;;2.54;100.00
21588;BME280;10956;48.878;13.316;2023-02-03T10:07:20;94785.25;;;2.51;100.00
21588;BME280;10956;48.878;13.316;2023-02-03T10:12:31;94776.03;;;2.55;100.00
21588;BME280;10956;48.878;13.316;2023-02-03T10:15:28;94790.03;;;2.61;100.00
21588;BME280;10956;48.878;13.316;2023-02-03T10:18:03;94781.22;;;2.68;100.00
21588;BME280;10956;48.878;13.316;2023-02-03T10:20:41;94779.63;;;2.67;100.00
21588;BME280;10956;48.878;13.316;2023-02-03T10:23:16;94784.44;;;2.70;100.00
21588;BME280;10956;48.878;13.316;2023-02-03T10:25:51;94776.63;;;2.70;100.00
21588;BME280;10956;48.878;13.316;2023-02-03T10:28:24;94779.59;;;2.80;100.00
21588;BME280;10956;48.878;13.316;2023-02-03T10:31:01;94772.00;;;2.79;100.00
21588;BME280;10956;48.878;13.316;2023-02-03T10:33:32;94770.78;;;2.81;100.00
21588;BME280;10956;48.878;13.316;2023-02-03T10:36:27;94769.41;;;2.66;100.00
21588;BME280;10956;48.878;13.316;2023-02-03T10:41:24;94751.84;;;2.48;100.00
21588;BME280;10956;48.878;13.316;2023-02-03T10:43:52;94750.81;;;2.49;100.00
21588;BME280;10956;48.878;13.316;2023-02-03T10:46:26;94737.63;;;2.44;100.00
21588;BME280;10956;48.878;13.316;2023-02-03T10:48:52;94751.03;;;2.41;100.00
21588;BME280;10956;48.878;13.316;2023-02-03T10:51:21;94738.44;;;2.38;100.00
21588;BME280;10956;48.878;13.316;2023-02-03T10:53:48;94739.63;;;2.29;100.00
21588;BME280;10956;48.878;13.316;2023-02-03T10:56:20;94740.63;;;2.28;100.00
21588;BME280;10956;48.878;13.316;2023-02-03T10:58:49;94757.25;;;2.26;100.00
21588;BME280;10956;48.878;13.316;2023-02-03T11:01:18;94756.44;;;2.06;100.00
21588;BME280;10956;48.878;13.316;2023-02-03T11:04:04;94740.84;;;2.06;100.00
21588;BME280;10956;48.878;13.316;2023-02-03T11:06:31;94732.44;;;2.24;100.00
21588;BME280;10956;48.878;13.316;2023-02-03T11:08:57;94719.63;;;2.22;100.00
21588;BME280;10956;48.878;13.316;2023-02-03T11:11:28;94716.84;;;2.24;100.00
21588;BME280;10956;48.878;13.316;2023-02-03T11:16:27;94714.03;;;2.39;100.00
21588;BME280;10956;48.878;13.316;2023-02-03T11:26:14;94696.84;;;2.24;100.00
21588;BME280;10956;48.878;13.316;2023-02-03T11:28:45;94688.44;;;2.22;100.00
21588;BME280;10956;48.878;13.316;2023-02-03T11:31:23;94688.84;;;2.19;100.00
21588;BME280;10956;48.878;13.316;2023-02-03T11:33:53;94687.63;;;2.29;100.00
21588;BME280;10956;48.878;13.316;2023-02-03T11:36:20;94681.22;;;2.24;100.00
21588;BME280;10956;48.878;13.316;2023-02-03T11:38:45;94673.81;;;2.35;100.00
21588;BME280;10956;48.878;13.316;2023-02-03T11:41:16;94675.00;;;2.39;100.00
21588;BME280;10956;48.878;13.316;2023-02-03T11:43:42;94661.59;;;2.42;100.00
21588;BME280;10956;48.878;13.316;2023-02-03T11:46:07;94672.00;;;2.42;100.00
21588;BME280;10956;48.878;13.316;2023-02-03T11:48:41;94663.97;;;2.50;100.00
21588;BME280;10956;48.878;13.316;2023-02-03T11:56:31;94670.41;;;2.28;100.00
21588;BME280;10956;48.878;13.316;2023-02-03T12:07:27;94649.56;;;2.47;100.00
21588;BME280;10956;48.878;13.316;2023-02-03T12:10:11;94647.97;;;2.53;100.00
21588;BME280;10956;48.878;13.316;2023-02-03T12:18:45;94634.16;;;2.52;100.00
21588;BME280;10956;48.878;13.316;2023-02-03T12:31:23;94598.69;;;2.65;100.00
21588;BME280;10956;48.878;13.316;2023-02-03T12:33:59;94596.25;;;2.70;100.00
21588;BME280;10956;48.878;13.316;2023-02-03T12:36:34;94590.50;;;2.61;100.00
21588;BME280;10956;48.878;13.316;2023-02-03T12:39:29;94594.47;;;2.70;100.00
21588;BME280;10956;48.878;13.316;2023-02-03T12:42:08;94583.88;;;2.65;100.00
21588;BME280;10956;48.878;13.316;2023-02-03T12:44:47;94574.22;;;2.72;100.00
21588;BME280;10956;48.878;13.316;2023-02-03T12:50:16;94571.91;;;2.57;100.00
21588;BME280;10956;48.878;13.316;2023-02-03T12:52:50;94560.69;;;2.57;100.00
21588;BME280;10956;48.878;13.316;2023-02-03T12:55:21;94551.94;;;2.45;100.00
21588;BME280;10956;48.878;13.316;2023-02-03T12:57:57;94531.38;;;2.37;100.00
21588;BME280;10956;48.878;13.316;2023-02-03T13:03:48;94511.75;;;2.34;100.00
21588;BME280;10956;48.878;13.316;2023-02-03T13:06:26;94532.31;;;2.49;100.00
21588;BME280;10956;48.878;13.316;2023-02-03T13:09:02;94510.38;;;2.32;100.00
21588;BME280;10956;48.878;13.316;2023-02-03T13:11:37;94499.97;;;2.32;100.00
21588;BME280;10956;48.878;13.316;2023-02-03T13:17:36;94496.19;;;2.28;100.00
21588;BME280;10956;48.878;13.316;2023-02-03T13:20:23;94471.97;;;2.34;100.00
21588;BME280;10956;48.878;13.316;2023-02-03T13:22:49;94441.09;;;2.44;100.00
21588;BME280;10956;48.878;13.316;2023-02-03T13:25:33;94458.28;;;2.45;100.00
21588;BME280;10956;48.878;13.316;2023-02-03T13:43:15;94370.31;;;2.35;100.00
21588;BME280;10956;48.878;13.316;2023-02-03T13:45:44;94367.38;;;2.25;100.00
21588;BME280;10956;48.878;13.316;2023-02-03T13:48:21;94373.59;;;2.24;100.00
21588;BME280;10956;48.878;13.316;2023-02-03T13:50:50;94372.38;;;2.26;100.00
21588;BME280;10956;48.878;13.316;2023-02-03T13:53:25;94378.53;;;2.32;100.00
21588;BME280;10956;48.878;13.316;2023-02-03T13:56:01;94357.56;;;2.27;100.00
21588;BME280;10956;48.878;13.316;2023-02-03T13:58:32;94377.59;;;2.26;100.00
21588;BME280;10956;48.878;13.316;2023-02-03T14:01:01;94382.38;;;2.30;100.00
21588;BME280;10956;48.878;13.316;2023-02-03T14:05:54;94372.03;;;2.16;100.00
21588;BME280;10956;48.878;13.316;2023-02-03T14:16:57;94417.75;;;2.31;100.00
21588;BME280;10956;48.878;13.316;2023-02-03T14:22:08;94416.97;;;2.30;100.00
21588;BME280;10956;48.878;13.316;2023-02-03T14:24:43;94415.91;;;2.38;100.00
21588;BME280;10956;48.878;13.316;2023-02-03T14:27:23;94411.13;;;2.35;100.00
21588;BME280;10956;48.878;13.316;2023-02-03T14:30:21;94408.31;;;2.36;100.00
21588;BME280;10956;48.878;13.316;2023-02-03T14:32:58;94397.75;;;2.31;100.00
21588;BME280;10956;48.878;13.316;2023-02-03T14:35:31;94403.13;;;2.36;100.00
21588;BME280;10956;48.878;13.316;2023-02-03T14:38:07;94407.88;;;2.46;100.00
21588;BME280;10956;48.878;13.316;2023-02-03T14:41:06;94403.94;;;2.37;100.00
21588;BME280;10956;48.878;13.316;2023-02-03T14:43:38;94409.28;;;2.42;100.00
21588;BME280;10956;48.878;13.316;2023-02-03T14:46:38;94407.88;;;2.46;100.00
21588;BME280;10956;48.878;13.316;2023-02-03T14:49:24;94403.00;;;2.56;100.00
21588;BME280;10956;48.878;13.316;2023-02-03T14:52:15;94394.59;;;2.54;100.00